createdAt,value
2022-07-30T00:01:14.965Z,17.54
2022-07-30T00:03:41.913Z,17.54
2022-07-30T00:06:08.691Z,17.54
2022-07-30T00:08:36.587Z,17.48
2022-07-30T00:11:03.768Z,17.47
2022-07-30T00:13:30.891Z,17.48
2022-07-30T00:15:57.601Z,17.44
2022-07-30T00:18:24.512Z,17.46
2022-07-30T00:20:52.180Z,17.37
2022-07-30T00:23:19.480Z,17.22
2022-07-30T00:25:46.473Z,17.13
2022-07-30T00:28:13.443Z,17.04
2022-07-30T00:30:40.884Z,17.05
2022-07-30T00:33:09.835Z,17.10
2022-07-30T00:35:37.617Z,17.13
2022-07-30T00:38:04.449Z,17.16
2022-07-30T00:40:31.433Z,17.02
2022-07-30T00:42:58.244Z,16.91
2022-07-30T00:45:25.517Z,16.82
2022-07-30T00:47:52.365Z,16.82
2022-07-30T00:50:19.716Z,16.82
2022-07-30T00:52:50.410Z,16.82
2022-07-30T00:55:17.184Z,16.75
2022-07-30T00:57:44.469Z,16.66
2022-07-30T01:00:14.586Z,16.66
2022-07-30T01:02:41.511Z,16.64
2022-07-30T01:05:08.949Z,16.59
2022-07-30T01:07:35.743Z,16.51
2022-07-30T01:10:02.711Z,16.49
2022-07-30T01:12:31.237Z,16.43
2022-07-30T01:15:00.318Z,16.38
2022-07-30T01:17:27.271Z,16.35
2022-07-30T01:19:59.200Z,16.32
2022-07-30T01:22:30.720Z,16.27
2022-07-30T01:25:03.721Z,16.17
2022-07-30T01:27:35.319Z,16.09
2022-07-30T01:30:04.490Z,16.07
2022-07-30T01:32:33.644Z,16.05
2022-07-30T01:35:02.831Z,16.05
2022-07-30T01:37:32.212Z,16.08
2022-07-30T01:39:59.773Z,16.09
2022-07-30T01:42:29.008Z,16.10
2022-07-30T01:44:57.498Z,16.04
2022-07-30T01:47:25.481Z,15.90
2022-07-30T01:49:53.703Z,15.92
2022-07-30T01:52:22.496Z,15.89
2022-07-30T01:54:52.427Z,15.90
2022-07-30T01:57:21.145Z,15.88
2022-07-30T01:59:52.355Z,15.90
2022-07-30T02:02:19.659Z,15.93
2022-07-30T02:04:47.241Z,15.89
2022-07-30T02:07:23.543Z,15.90
2022-07-30T02:10:03.264Z,15.80
2022-07-30T02:12:33.164Z,15.77
2022-07-30T02:15:20.848Z,15.68
2022-07-30T02:18:02.094Z,15.64
2022-07-30T02:20:31.842Z,15.60
2022-07-30T02:23:10.533Z,15.60
2022-07-30T02:25:42.354Z,15.60
2022-07-30T02:28:12.907Z,15.68
2022-07-30T02:30:47.288Z,15.64
2022-07-30T02:33:17.406Z,15.59
2022-07-30T02:35:44.177Z,15.53
2022-07-30T02:38:16.017Z,15.54
2022-07-30T02:40:44.355Z,15.44
2022-07-30T02:43:14.403Z,15.45
2022-07-30T02:45:42.482Z,15.32
2022-07-30T02:48:11.712Z,15.36
2022-07-30T02:51:01.094Z,15.36
2022-07-30T02:53:29.169Z,15.32
2022-07-30T02:55:56.966Z,15.22
2022-07-30T02:58:26.178Z,15.15
2022-07-30T03:00:54.923Z,15.09
2022-07-30T03:03:29.109Z,15.13
2022-07-30T03:05:57.633Z,15.10
2022-07-30T03:08:27.672Z,15.07
2022-07-30T03:10:56.450Z,15.11
2022-07-30T03:13:24.499Z,15.07
2022-07-30T03:15:52.930Z,15.10
2022-07-30T03:18:23.536Z,15.16
2022-07-30T03:20:53.577Z,15.16
2022-07-30T03:23:22.756Z,15.13
2022-07-30T03:25:56.936Z,15.09
2022-07-30T03:28:25.497Z,15.04
2022-07-30T03:30:54.200Z,15.00
2022-07-30T03:33:22.423Z,14.99
2022-07-30T03:35:49.913Z,14.91
2022-07-30T03:38:18.168Z,14.88
2022-07-30T03:40:45.894Z,14.85
2022-07-30T03:43:18.329Z,14.87
2022-07-30T03:46:00.173Z,14.89
2022-07-30T03:48:27.832Z,14.87
2022-07-30T03:50:55.821Z,14.83
2022-07-30T03:53:27.698Z,14.77
2022-07-30T03:55:55.043Z,14.77
2022-07-30T03:58:22.511Z,14.74
2022-07-30T04:00:51.107Z,14.75
2022-07-30T04:03:28.856Z,14.76
2022-07-30T04:05:55.746Z,14.74
2022-07-30T04:08:22.669Z,14.77
2022-07-30T04:10:50.901Z,14.76
2022-07-30T04:13:17.825Z,14.76
2022-07-30T04:16:41.082Z,14.71
2022-07-30T04:19:14.495Z,14.63
2022-07-30T04:21:42.675Z,14.69
2022-07-30T04:24:11.238Z,14.62
2022-07-30T04:26:38.665Z,14.64
2022-07-30T04:29:07.787Z,14.59
2022-07-30T04:31:35.591Z,14.61
2022-07-30T04:34:08.183Z,14.72
2022-07-30T04:36:36.032Z,14.64
2022-07-30T04:39:03.825Z,14.75
2022-07-30T04:41:35.441Z,14.75
2022-07-30T04:44:20.214Z,14.81
2022-07-30T04:46:48.073Z,14.78
2022-07-30T04:49:16.768Z,14.78
2022-07-30T04:51:44.806Z,14.79
2022-07-30T04:54:15.895Z,14.85
2022-07-30T04:56:52.401Z,14.86
2022-07-30T04:59:28.104Z,14.93
2022-07-30T05:01:57.586Z,14.92
2022-07-30T05:04:25.862Z,14.92
2022-07-30T05:06:54.730Z,14.98
2022-07-30T05:09:22.691Z,15.07
2022-07-30T05:11:55.061Z,15.07
2022-07-30T05:14:23.368Z,15.06
2022-07-30T05:16:50.749Z,15.07
2022-07-30T05:19:18.981Z,15.09
2022-07-30T05:21:46.016Z,15.15
2022-07-30T05:24:12.981Z,15.20
2022-07-30T05:26:39.980Z,15.24
2022-07-30T05:29:07.188Z,15.32
2022-07-30T05:31:35.139Z,15.37
2022-07-30T05:34:03.563Z,15.46
2022-07-30T05:36:31.022Z,15.52
2022-07-30T05:38:58.928Z,15.51
2022-07-30T05:41:32.000Z,15.58
2022-07-30T05:43:59.334Z,15.72
2022-07-30T05:46:26.340Z,15.73
2022-07-30T05:48:53.679Z,15.80
2022-07-30T05:51:22.274Z,15.85
2022-07-30T05:53:49.762Z,15.93
2022-07-30T05:56:16.730Z,15.98
2022-07-30T05:58:43.840Z,16.02
2022-07-30T06:01:10.864Z,16.08
2022-07-30T06:03:39.902Z,16.13
2022-07-30T06:06:07.882Z,16.12
2022-07-30T06:08:35.214Z,16.24
2022-07-30T06:11:02.270Z,16.30
2022-07-30T06:13:29.346Z,16.42
2022-07-30T06:15:57.089Z,16.45
2022-07-30T06:18:24.015Z,16.50
2022-07-30T06:20:54.526Z,16.52
2022-07-30T06:23:22.375Z,16.62
2022-07-30T06:25:50.049Z,16.69
2022-07-30T06:28:37.187Z,16.83
2022-07-30T06:31:04.839Z,16.94
2022-07-30T06:33:31.838Z,16.96
2022-07-30T06:35:58.779Z,17.03
2022-07-30T06:38:25.743Z,17.10
2022-07-30T06:40:52.817Z,17.19
2022-07-30T06:43:21.342Z,17.27
2022-07-30T06:45:48.420Z,17.36
2022-07-30T06:48:15.507Z,17.43
2022-07-30T06:50:42.621Z,17.52
2022-07-30T06:53:09.931Z,17.52
2022-07-30T06:55:36.799Z,17.61
2022-07-30T06:58:03.961Z,17.72
2022-07-30T07:00:31.786Z,17.78
2022-07-30T07:02:58.548Z,17.91
2022-07-30T07:05:29.143Z,18.03
2022-07-30T07:07:59.554Z,18.04
2022-07-30T07:10:27.495Z,18.10
2022-07-30T07:12:54.757Z,18.17
2022-07-30T07:15:37.098Z,18.28
2022-07-30T07:18:06.567Z,18.34
2022-07-30T07:20:36.322Z,18.37
2022-07-30T07:23:08.874Z,18.46
2022-07-30T07:25:36.794Z,18.54
2022-07-30T07:28:13.404Z,18.61
2022-07-30T07:30:46.050Z,18.69
2022-07-30T07:33:13.414Z,18.74
2022-07-30T07:35:49.526Z,18.83
2022-07-30T07:38:19.629Z,18.81
2022-07-30T07:40:48.098Z,18.86
2022-07-30T07:43:15.317Z,18.86
2022-07-30T07:45:43.212Z,18.91
2022-07-30T07:48:10.137Z,18.96
2022-07-30T07:50:37.259Z,19.03
2022-07-30T07:53:05.012Z,19.12
2022-07-30T07:55:33.696Z,19.20
2022-07-30T07:58:00.713Z,19.22
2022-07-30T08:00:28.337Z,19.22
2022-07-30T08:02:55.169Z,19.20
2022-07-30T08:05:24.383Z,19.27
2022-07-30T08:07:51.600Z,19.37
2022-07-30T08:10:19.160Z,19.47
2022-07-30T08:12:45.948Z,19.54
2022-07-30T08:15:13.170Z,19.58
2022-07-30T08:17:44.410Z,19.69
2022-07-30T08:20:13.192Z,19.71
2022-07-30T08:22:40.404Z,19.64
2022-07-30T08:25:07.888Z,19.69
2022-07-30T08:27:35.316Z,19.80
2022-07-30T08:30:07.192Z,19.76
2022-07-30T08:32:36.067Z,19.81
2022-07-30T08:35:06.147Z,19.82
2022-07-30T08:37:34.297Z,19.92
2022-07-30T08:40:03.697Z,19.89
2022-07-30T08:42:34.360Z,19.99
2022-07-30T08:45:01.418Z,20.03
2022-07-30T08:47:41.689Z,20.19
2022-07-30T08:50:10.286Z,20.25
2022-07-30T08:52:38.638Z,20.36
2022-07-30T08:55:08.847Z,20.52
2022-07-30T08:57:42.895Z,20.78
2022-07-30T09:00:11.189Z,20.82
2022-07-30T09:02:38.234Z,20.90
2022-07-30T09:05:06.373Z,20.90
2022-07-30T09:07:35.329Z,21.27
2022-07-30T09:10:02.779Z,21.36
2022-07-30T09:12:38.668Z,21.44
2022-07-30T09:15:11.501Z,21.40
2022-07-30T09:17:57.269Z,21.51
2022-07-30T09:20:28.259Z,21.66
2022-07-30T09:22:59.688Z,21.75
2022-07-30T09:25:45.010Z,21.97
2022-07-30T09:28:16.280Z,21.95
2022-07-30T09:30:55.356Z,22.15
2022-07-30T09:33:35.003Z,22.35
2022-07-30T09:36:02.409Z,22.36
2022-07-30T09:38:29.657Z,22.49
2022-07-30T09:41:00.152Z,22.46
2022-07-30T09:43:32.408Z,22.90
2022-07-30T09:46:00.711Z,23.12
2022-07-30T09:48:28.953Z,23.21
2022-07-30T09:50:57.675Z,23.35
2022-07-30T09:53:29.329Z,23.41
2022-07-30T09:55:58.293Z,23.68
2022-07-30T09:58:37.545Z,23.80
2022-07-30T10:01:12.482Z,24.17
2022-07-30T10:03:43.869Z,24.02
2022-07-30T10:06:14.664Z,24.15
2022-07-30T10:08:48.293Z,24.58
2022-07-30T10:11:22.815Z,24.95
2022-07-30T10:13:55.266Z,25.37
2022-07-30T10:16:23.989Z,25.21
2022-07-30T10:18:51.416Z,24.64
2022-07-30T10:21:24.364Z,24.29
2022-07-30T10:23:54.072Z,24.45
2022-07-30T10:26:26.397Z,24.29
2022-07-30T10:28:54.881Z,25.10
2022-07-30T10:31:48.565Z,25.14
2022-07-30T10:34:10.834Z,24.61
2022-07-30T10:36:43.434Z,24.38
2022-07-30T10:39:15.972Z,25.17
2022-07-30T10:41:57.721Z,25.78
2022-07-30T10:45:01.423Z,26.31
2022-07-30T10:47:33.517Z,27.19
2022-07-30T10:50:25.799Z,27.45
2022-07-30T10:53:01.925Z,28.36
2022-07-30T10:55:37.106Z,27.99
2022-07-30T10:58:11.219Z,26.99
2022-07-30T11:00:55.604Z,27.55
2022-07-30T11:03:41.641Z,28.59
2022-07-30T11:06:15.420Z,28.98
2022-07-30T11:08:48.680Z,28.13
2022-07-30T11:11:37.023Z,28.71
2022-07-30T11:14:11.512Z,29.31
2022-07-30T11:16:40.687Z,29.64
2022-07-30T11:19:56.394Z,29.55
2022-07-30T11:22:30.184Z,30.38
2022-07-30T11:25:00.722Z,29.30
2022-07-30T11:27:49.757Z,27.62
2022-07-30T11:30:18.080Z,26.73
2022-07-30T11:32:56.352Z,27.71
2022-07-30T11:35:32.243Z,27.48
2022-07-30T11:38:22.199Z,28.21
2022-07-30T11:40:51.615Z,29.05
2022-07-30T11:43:36.205Z,29.65
2022-07-30T11:46:15.794Z,30.40
2022-07-30T11:48:59.049Z,30.06
2022-07-30T11:51:28.579Z,29.84
2022-07-30T11:54:07.574Z,28.54
2022-07-30T11:56:36.243Z,28.17
2022-07-30T11:59:11.212Z,27.15
2022-07-30T12:01:40.620Z,27.01
2022-07-30T12:04:15.383Z,26.69
2022-07-30T12:06:51.317Z,28.14
2022-07-30T12:09:27.390Z,28.64
2022-07-30T12:11:58.820Z,29.39
2022-07-30T12:14:43.018Z,29.58
2022-07-30T12:17:18.201Z,28.83
2022-07-30T12:19:49.326Z,29.41
2022-07-30T12:22:24.276Z,30.02
2022-07-30T12:24:55.759Z,31.23
2022-07-30T12:27:27.961Z,31.07
2022-07-30T12:29:56.252Z,30.76
2022-07-30T12:32:24.644Z,30.75
2022-07-30T12:34:58.207Z,30.30
2022-07-30T12:37:29.432Z,29.22
2022-07-30T12:40:19.845Z,29.56
2022-07-30T12:42:59.561Z,29.37
2022-07-30T12:45:51.699Z,28.64
2022-07-30T12:48:22.166Z,28.63
2022-07-30T12:51:09.396Z,28.88
2022-07-30T12:53:42.539Z,28.75
2022-07-30T12:56:24.916Z,29.61
2022-07-30T12:58:53.943Z,28.40
2022-07-30T13:01:47.191Z,27.73
2022-07-30T13:04:19.194Z,28.90
2022-07-30T13:07:10.831Z,30.10
2022-07-30T13:09:47.651Z,30.73
2022-07-30T13:12:17.806Z,30.79
2022-07-30T13:14:47.728Z,31.20
2022-07-30T13:17:20.829Z,31.66
2022-07-30T13:19:56.560Z,32.00
2022-07-30T13:22:28.773Z,31.56
2022-07-30T13:25:00.106Z,30.96
2022-07-30T13:27:29.643Z,31.64
2022-07-30T13:30:09.100Z,32.09
2022-07-30T13:32:46.286Z,32.29
2022-07-30T13:35:13.252Z,31.55
2022-07-30T13:37:40.033Z,31.26
2022-07-30T13:40:07.762Z,31.71
2022-07-30T13:42:34.901Z,31.67
2022-07-30T13:45:01.599Z,31.55
2022-07-30T13:47:29.111Z,31.60
2022-07-30T13:49:55.808Z,32.14
2022-07-30T13:52:22.484Z,32.55
2022-07-30T13:54:51.471Z,31.85
2022-07-30T13:57:18.359Z,31.40
2022-07-30T13:59:45.047Z,31.06
2022-07-30T14:02:12.125Z,30.97
2022-07-30T14:04:38.829Z,31.32
2022-07-30T14:07:05.747Z,31.66
2022-07-30T14:09:33.349Z,31.45
2022-07-30T14:12:12.654Z,31.46
2022-07-30T14:14:39.473Z,31.73
2022-07-30T14:17:06.303Z,31.87
2022-07-30T14:19:33.102Z,31.18
2022-07-30T14:22:00.038Z,31.45
2022-07-30T14:24:26.835Z,30.85
2022-07-30T14:26:57.963Z,31.17
2022-07-30T14:29:28.207Z,30.87
2022-07-30T14:31:55.731Z,31.36
2022-07-30T14:34:22.645Z,31.03
2022-07-30T14:36:49.450Z,31.55
2022-07-30T14:39:16.374Z,31.59
2022-07-30T14:41:43.378Z,30.90
2022-07-30T14:44:12.474Z,31.06
2022-07-30T14:46:52.154Z,31.20
2022-07-30T14:49:20.989Z,31.14
2022-07-30T14:51:48.072Z,31.53
2022-07-30T14:54:15.034Z,31.03
2022-07-30T14:56:42.069Z,31.22
2022-07-30T14:59:08.896Z,31.15
2022-07-30T15:01:35.768Z,30.61
2022-07-30T15:04:02.971Z,29.88
2022-07-30T15:06:30.082Z,29.35
2022-07-30T15:08:56.949Z,29.05
2022-07-30T15:11:23.674Z,29.30
2022-07-30T15:13:52.509Z,29.58
2022-07-30T15:16:19.725Z,29.47
2022-07-30T15:18:46.541Z,29.64
2022-07-30T15:21:13.342Z,30.14
2022-07-30T15:23:40.199Z,30.69
2022-07-30T15:26:07.427Z,30.46
2022-07-30T15:28:34.224Z,30.18
2022-07-30T15:31:01.080Z,30.73
2022-07-30T15:33:28.096Z,31.42
2022-07-30T15:35:54.981Z,31.76
2022-07-30T15:38:23.065Z,32.05
2022-07-30T15:40:50.099Z,32.26
2022-07-30T15:43:17.261Z,32.76
2022-07-30T15:45:55.845Z,32.72
2022-07-30T15:48:27.326Z,32.68
2022-07-30T15:51:05.047Z,32.13
2022-07-30T15:53:32.660Z,31.38
2022-07-30T15:56:00.138Z,31.31
2022-07-30T15:58:27.060Z,31.49
2022-07-30T16:00:54.049Z,31.89
2022-07-30T16:03:21.952Z,31.75
2022-07-30T16:05:51.326Z,31.13
2022-07-30T16:08:22.602Z,31.21
2022-07-30T16:10:50.135Z,31.64
2022-07-30T16:13:16.853Z,31.62
2022-07-30T16:15:44.205Z,31.04
2022-07-30T16:18:11.162Z,31.67
2022-07-30T16:20:38.078Z,31.78
2022-07-30T16:23:08.133Z,31.55
2022-07-30T16:25:39.378Z,30.98
2022-07-30T16:28:07.590Z,31.09
2022-07-30T16:30:34.353Z,31.16
2022-07-30T16:33:01.368Z,30.63
2022-07-30T16:35:28.310Z,29.89
2022-07-30T16:37:57.526Z,29.14
2022-07-30T16:40:26.853Z,28.32
2022-07-30T16:42:53.819Z,28.14
2022-07-30T16:45:20.814Z,27.92
2022-07-30T16:47:48.890Z,27.87
2022-07-30T16:50:16.099Z,27.90
2022-07-30T16:52:42.844Z,27.70
2022-07-30T16:55:10.068Z,27.55
2022-07-30T16:57:36.795Z,27.45
2022-07-30T17:00:06.401Z,27.27
2022-07-30T17:02:33.118Z,27.24
2022-07-30T17:05:00.122Z,27.03
2022-07-30T17:07:28.447Z,27.00
2022-07-30T17:09:55.614Z,27.43
2022-07-30T17:12:25.624Z,27.22
2022-07-30T17:14:54.171Z,27.17
2022-07-30T17:17:21.041Z,26.97
2022-07-30T17:19:48.085Z,26.91
2022-07-30T17:22:16.182Z,26.77
2022-07-30T17:24:43.367Z,27.13
2022-07-30T17:27:10.319Z,27.56
2022-07-30T17:29:49.648Z,27.66
2022-07-30T17:32:20.450Z,28.04
2022-07-30T17:34:48.574Z,28.24
2022-07-30T17:37:18.562Z,27.70
2022-07-30T17:40:24.639Z,27.15
2022-07-30T17:42:32.216Z,26.83
2022-07-30T17:45:01.391Z,26.86
2022-07-30T17:47:28.686Z,26.66
2022-07-30T17:49:56.110Z,26.25
2022-07-30T17:52:26.218Z,25.99
2022-07-30T17:54:54.470Z,26.12
2022-07-30T17:57:21.438Z,26.06
2022-07-30T17:59:48.436Z,25.97
2022-07-30T18:02:15.431Z,25.60
2022-07-30T18:04:42.127Z,25.77
2022-07-30T18:07:08.972Z,25.55
2022-07-30T18:09:40.150Z,25.80
2022-07-30T18:12:08.054Z,25.85
2022-07-30T18:14:35.011Z,25.83
2022-07-30T18:17:02.872Z,25.53
2022-07-30T18:19:29.698Z,25.42
2022-07-30T18:21:57.031Z,25.35
2022-07-30T18:24:24.942Z,25.12
2022-07-30T18:26:52.062Z,24.80
2022-07-30T18:29:18.848Z,24.62
2022-07-30T18:31:47.867Z,24.63
2022-07-30T18:34:14.610Z,24.39
2022-07-30T18:36:41.462Z,24.39
2022-07-30T18:39:08.295Z,24.29
2022-07-30T18:41:34.997Z,24.14
2022-07-30T18:44:02.855Z,23.82
2022-07-30T18:46:29.525Z,23.73
2022-07-30T18:48:57.031Z,23.60
2022-07-30T18:51:25.417Z,23.45
2022-07-30T18:53:53.570Z,23.42
2022-07-30T18:56:20.825Z,23.29
2022-07-30T18:58:47.667Z,23.19
2022-07-30T19:01:14.530Z,23.17
2022-07-30T19:03:41.332Z,22.94
2022-07-30T19:06:08.265Z,22.94
2022-07-30T19:08:35.061Z,22.87
2022-07-30T19:11:01.741Z,22.83
2022-07-30T19:13:28.598Z,22.90
2022-07-30T19:15:56.006Z,22.87
2022-07-30T19:18:22.810Z,22.94
2022-07-30T19:20:51.516Z,22.94
2022-07-30T19:23:18.755Z,22.92
2022-07-30T19:25:45.653Z,22.90
2022-07-30T19:28:14.025Z,22.90
2022-07-30T19:30:44.194Z,22.84
2022-07-30T19:33:15.652Z,22.69
2022-07-30T19:35:43.205Z,22.64
2022-07-30T19:38:11.967Z,22.65
2022-07-30T19:40:48.070Z,22.67
2022-07-30T19:43:16.206Z,22.65
2022-07-30T19:45:47.770Z,22.49
2022-07-30T19:48:29.244Z,22.46
2022-07-30T19:50:59.223Z,22.48
2022-07-30T19:53:27.918Z,22.50
2022-07-30T19:55:58.789Z,22.55
2022-07-30T19:58:25.976Z,22.45
2022-07-30T20:00:54.338Z,22.52
2022-07-30T20:03:25.466Z,22.52
2022-07-30T20:05:58.746Z,22.50
2022-07-30T20:08:28.383Z,22.50
2022-07-30T20:10:57.964Z,22.50
2022-07-30T20:13:45.386Z,22.52
2022-07-30T20:16:17.297Z,22.51
2022-07-30T20:18:46.232Z,22.57
2022-07-30T20:21:15.843Z,22.56
2022-07-30T20:23:44.837Z,22.53
2022-07-30T20:26:14.388Z,22.50
2022-07-30T20:28:45.729Z,22.48
2022-07-30T20:31:12.973Z,22.45
2022-07-30T20:33:40.337Z,22.44
2022-07-30T20:36:10.558Z,22.42
2022-07-30T20:38:38.967Z,22.46
2022-07-30T20:41:10.001Z,22.43
2022-07-30T20:43:45.978Z,22.40
2022-07-30T20:46:19.783Z,22.38
2022-07-30T20:48:46.731Z,22.38
2022-07-30T20:51:13.963Z,22.41
2022-07-30T20:56:29.220Z,22.34
2022-07-30T20:58:58.859Z,22.33
2022-07-30T21:01:31.467Z,22.33
2022-07-30T21:03:58.392Z,22.33
2022-07-30T21:06:26.169Z,22.36
2022-07-30T21:08:53.641Z,22.33
2022-07-30T21:11:22.545Z,22.29
2022-07-30T21:13:49.255Z,22.25
2022-07-30T21:16:16.826Z,22.23
2022-07-30T21:18:48.236Z,22.23
2022-07-30T21:21:17.727Z,22.21
2022-07-30T21:23:56.385Z,22.24
2022-07-30T21:26:28.808Z,22.20
2022-07-30T21:28:58.022Z,22.20
2022-07-30T21:31:58.082Z,22.18
2022-07-30T21:34:11.890Z,22.17
2022-07-30T21:36:39.137Z,22.10
2022-07-30T21:39:06.562Z,22.14
2022-07-30T21:41:40.336Z,22.01
2022-07-30T21:44:10.513Z,21.95
2022-07-30T21:46:38.163Z,21.91
2022-07-30T21:49:07.297Z,21.88
2022-07-30T21:51:34.760Z,21.85
2022-07-30T21:54:01.667Z,21.87
2022-07-30T21:56:33.922Z,21.85
2022-07-30T21:59:00.749Z,21.93
2022-07-30T22:01:33.206Z,21.93
2022-07-30T22:04:08.194Z,21.96
2022-07-30T22:06:41.263Z,21.83
2022-07-30T22:09:19.723Z,21.72
2022-07-30T22:14:47.004Z,21.62
2022-07-30T22:17:23.483Z,21.58
2022-07-30T22:19:56.512Z,21.49
2022-07-30T22:22:27.752Z,21.36
2022-07-30T22:24:55.808Z,21.25
2022-07-30T22:27:25.477Z,21.18
2022-07-30T22:29:55.567Z,21.18
2022-07-30T22:32:23.401Z,21.20
2022-07-30T22:34:50.844Z,21.18
2022-07-30T22:37:21.146Z,21.06
2022-07-30T22:39:51.242Z,20.92
2022-07-30T22:42:24.386Z,20.85
2022-07-30T22:44:52.136Z,20.83
2022-07-30T22:47:21.755Z,20.81
2022-07-30T22:50:06.330Z,20.64
2022-07-30T22:52:49.077Z,20.69
2022-07-30T22:55:28.726Z,20.62
2022-07-30T22:57:56.678Z,20.59
2022-07-30T23:00:27.487Z,20.62
2022-07-30T23:02:56.202Z,20.62
2022-07-30T23:05:23.319Z,20.60
2022-07-30T23:07:50.537Z,20.53
2022-07-30T23:10:20.597Z,20.49
2022-07-30T23:12:26.419Z,22.35
2022-07-30T23:12:28.379Z,21.66
2022-07-30T23:12:51.393Z,20.45
2022-07-30T23:15:20.155Z,20.44
2022-07-30T23:17:47.149Z,20.38
2022-07-30T23:20:17.741Z,20.32
2022-07-30T23:22:45.894Z,20.33
2022-07-30T23:25:13.688Z,20.35
2022-07-30T23:27:41.065Z,20.33
2022-07-30T23:30:09.965Z,20.34
2022-07-30T23:32:38.176Z,20.39
2022-07-30T23:35:06.273Z,20.41
2022-07-30T23:37:48.566Z,20.41
2022-07-30T23:40:19.018Z,20.41
2022-07-30T23:42:47.073Z,20.37
2022-07-30T23:45:14.089Z,20.36
2022-07-30T23:47:57.275Z,20.32
2022-07-30T23:50:27.936Z,20.27
2022-07-30T23:52:55.818Z,20.25
2022-07-30T23:55:22.615Z,20.24
2022-07-30T23:57:49.532Z,20.24
